createdAt,value
2023-05-19T00:01:48.873Z,4.90
2023-05-19T00:04:15.614Z,3.67
2023-05-19T00:06:42.509Z,4.25
2023-05-19T00:09:10.023Z,4.20
2023-05-19T00:11:38.903Z,3.83
2023-05-19T00:14:07.400Z,4.30
2023-05-19T00:16:34.509Z,3.85
2023-05-19T00:19:02.962Z,4.40
2023-05-19T00:21:30.164Z,4.50
2023-05-19T00:23:56.756Z,4.28
2023-05-19T00:26:24.486Z,5.13
2023-05-19T00:28:51.050Z,4.50
2023-05-19T00:31:17.551Z,4.90
2023-05-19T00:33:44.120Z,5.32
2023-05-19T00:36:10.615Z,5.43
2023-05-19T00:38:37.434Z,5.03
2023-05-19T00:41:05.540Z,4.88
2023-05-19T00:43:32.702Z,5.13
2023-05-19T00:45:59.049Z,4.70
2023-05-19T00:48:26.259Z,4.63
2023-05-19T00:50:57.169Z,5.63
2023-05-19T00:53:24.563Z,4.63
2023-05-19T00:55:50.987Z,5.57
2023-05-19T00:58:18.424Z,5.32
2023-05-19T01:00:45.254Z,4.72
2023-05-19T01:03:11.962Z,4.95
2023-05-19T01:05:40.536Z,5.22
2023-05-19T01:08:07.745Z,4.97
2023-05-19T01:10:34.695Z,5.70
2023-05-19T01:13:03.180Z,4.68
2023-05-19T01:15:30.614Z,5.38
2023-05-19T01:18:14.015Z,5.43
2023-05-19T01:20:47.245Z,5.10
2023-05-19T01:23:32.390Z,4.88
2023-05-19T01:26:10.808Z,4.80
2023-05-19T01:28:58.931Z,4.80
2023-05-19T01:31:26.633Z,5.20
2023-05-19T01:33:54.134Z,5.43
2023-05-19T01:36:22.983Z,6.10
2023-05-19T01:38:54.550Z,5.80
2023-05-19T01:41:22.670Z,5.05
2023-05-19T01:43:50.190Z,5.25
2023-05-19T01:46:17.751Z,5.63
2023-05-19T01:48:45.141Z,5.80
2023-05-19T01:51:11.685Z,5.65
2023-05-19T01:53:38.140Z,5.95
2023-05-19T01:56:05.686Z,6.72
2023-05-19T01:58:47.462Z,5.57
2023-05-19T02:01:46.305Z,6.10
2023-05-19T02:04:15.581Z,5.55
2023-05-19T02:06:49.695Z,6.45
2023-05-19T02:09:25.385Z,6.10
2023-05-19T02:12:03.301Z,6.35
2023-05-19T02:14:41.675Z,5.50
2023-05-19T02:17:08.788Z,5.88
2023-05-19T02:19:38.421Z,6.07
2023-05-19T02:22:04.870Z,6.20
2023-05-19T02:24:31.257Z,6.28
2023-05-19T02:26:57.621Z,6.22
2023-05-19T02:29:23.986Z,6.55
2023-05-19T02:31:50.444Z,6.45
2023-05-19T02:34:16.871Z,7.38
2023-05-19T02:36:43.214Z,7.10
2023-05-19T02:39:10.614Z,7.38
2023-05-19T02:41:37.731Z,6.72
2023-05-19T02:44:04.511Z,7.15
2023-05-19T02:46:30.987Z,6.72
2023-05-19T02:48:57.332Z,6.82
2023-05-19T02:51:23.714Z,7.28
2023-05-19T02:53:50.374Z,7.03
2023-05-19T02:56:16.837Z,6.65
2023-05-19T02:58:43.328Z,7.38
2023-05-19T03:01:09.897Z,6.07
2023-05-19T03:03:36.642Z,7.18
2023-05-19T03:06:03.375Z,6.70
2023-05-19T03:08:29.760Z,5.90
2023-05-19T03:10:56.105Z,7.10
2023-05-19T03:13:22.462Z,7.07
2023-05-19T03:15:48.941Z,6.97
2023-05-19T03:18:15.436Z,7.15
2023-05-19T03:20:42.606Z,7.30
2023-05-19T03:23:09.439Z,7.38
2023-05-19T03:25:35.823Z,8.13
2023-05-19T03:28:02.168Z,8.32
2023-05-19T03:30:28.596Z,8.48
2023-05-19T03:32:55.052Z,8.27
2023-05-19T03:35:21.446Z,8.70
2023-05-19T03:37:47.810Z,8.95
2023-05-19T03:40:14.152Z,8.10
2023-05-19T03:42:40.530Z,8.27
2023-05-19T03:45:07.463Z,8.43
2023-05-19T03:47:33.841Z,7.35
2023-05-19T03:50:00.244Z,7.50
2023-05-19T03:52:26.581Z,7.82
2023-05-19T03:54:52.932Z,7.88
2023-05-19T03:57:19.735Z,7.60
2023-05-19T03:59:46.088Z,7.50
2023-05-19T04:02:12.494Z,7.63
2023-05-19T04:04:38.994Z,7.75
2023-05-19T04:07:05.489Z,7.15
2023-05-19T04:09:31.845Z,7.57
2023-05-19T04:11:58.212Z,7.30
2023-05-19T04:14:24.550Z,7.82
2023-05-19T04:16:50.926Z,8.55
2023-05-19T04:19:17.837Z,7.40
2023-05-19T04:21:44.313Z,8.63
2023-05-19T04:24:10.683Z,8.43
2023-05-19T04:26:37.194Z,8.45
2023-05-19T04:29:04.019Z,8.63
2023-05-19T04:31:30.953Z,8.68
2023-05-19T04:33:57.346Z,7.95
2023-05-19T04:36:23.681Z,9.68
2023-05-19T04:38:50.042Z,8.20
2023-05-19T04:41:16.536Z,8.60
2023-05-19T04:43:42.898Z,7.95
2023-05-19T04:46:10.939Z,7.60
2023-05-19T04:48:38.892Z,8.23
2023-05-19T04:51:05.838Z,7.47
2023-05-19T04:53:32.168Z,6.97
2023-05-19T04:55:59.397Z,7.90
2023-05-19T04:58:25.804Z,7.32
2023-05-19T05:00:52.436Z,7.43
2023-05-19T05:03:18.901Z,7.72
2023-05-19T05:05:45.334Z,7.57
2023-05-19T05:08:11.896Z,7.55
2023-05-19T05:10:38.246Z,6.43
2023-05-19T05:13:04.969Z,6.53
2023-05-19T05:15:31.597Z,6.72
2023-05-19T05:17:58.275Z,6.53
2023-05-19T05:20:25.164Z,7.50
2023-05-19T05:22:51.811Z,6.35
2023-05-19T05:25:18.720Z,6.15
2023-05-19T05:27:45.122Z,5.68
2023-05-19T05:30:11.789Z,6.05
2023-05-19T05:32:38.537Z,5.10
2023-05-19T05:35:05.616Z,6.47
2023-05-19T05:37:31.974Z,6.45
2023-05-19T05:39:58.323Z,6.57
2023-05-19T05:42:24.689Z,5.97
2023-05-19T05:44:51.058Z,5.72
2023-05-19T05:47:17.645Z,5.60
2023-05-19T05:49:44.334Z,4.90
2023-05-19T05:52:12.101Z,4.97
2023-05-19T05:54:38.745Z,4.85
2023-05-19T05:57:05.563Z,4.95
2023-05-19T05:59:31.917Z,4.80
2023-05-19T06:01:58.300Z,4.10
2023-05-19T06:04:24.765Z,4.53
2023-05-19T06:06:51.124Z,4.25
2023-05-19T06:09:17.501Z,4.45
2023-05-19T06:11:44.123Z,4.93
2023-05-19T06:14:10.512Z,4.28
2023-05-19T06:16:36.934Z,4.80
2023-05-19T06:19:03.354Z,3.75
2023-05-19T06:21:29.747Z,4.93
2023-05-19T06:23:56.090Z,4.63
2023-05-19T06:26:22.450Z,3.85
2023-05-19T06:28:48.797Z,4.30
2023-05-19T06:31:15.164Z,4.40
2023-05-19T06:33:41.568Z,4.97
2023-05-19T06:36:08.005Z,5.05
2023-05-19T06:38:34.350Z,4.85
2023-05-19T06:41:00.710Z,5.07
2023-05-19T06:43:27.087Z,4.50
2023-05-19T06:45:53.535Z,4.63
2023-05-19T06:48:19.868Z,3.97
2023-05-19T06:50:46.255Z,4.30
2023-05-19T06:53:12.646Z,4.32
2023-05-19T06:55:50.452Z,3.90
2023-05-19T06:58:24.214Z,3.92
2023-05-19T07:00:50.594Z,4.50
2023-05-19T07:03:17.049Z,4.28
2023-05-19T07:05:43.710Z,3.72
2023-05-19T07:08:10.079Z,3.90
2023-05-19T07:10:36.657Z,4.18
2023-05-19T07:13:03.049Z,4.35
2023-05-19T07:15:29.401Z,4.93
2023-05-19T07:17:55.838Z,4.25
2023-05-19T07:20:22.262Z,4.53
2023-05-19T07:22:48.608Z,4.43
2023-05-19T07:25:15.002Z,4.95
2023-05-19T07:27:41.360Z,4.13
2023-05-19T07:30:08.341Z,3.88
2023-05-19T07:32:34.775Z,5.10
2023-05-19T07:35:01.281Z,4.47
2023-05-19T07:37:27.688Z,5.97
2023-05-19T07:39:54.076Z,4.43
2023-05-19T07:42:20.439Z,4.63
2023-05-19T07:44:46.816Z,3.42
2023-05-19T07:47:13.165Z,3.30
2023-05-19T07:49:39.516Z,3.42
2023-05-19T07:52:06.189Z,2.50
2023-05-19T07:54:32.587Z,2.63
2023-05-19T07:56:58.952Z,2.53
2023-05-19T07:59:25.294Z,2.97
2023-05-19T08:01:51.682Z,2.63
2023-05-19T08:04:18.226Z,3.20
2023-05-19T08:06:44.768Z,2.97
2023-05-19T08:09:11.138Z,2.70
2023-05-19T08:11:37.511Z,2.53
2023-05-19T08:14:03.917Z,2.78
2023-05-19T08:16:30.524Z,2.80
2023-05-19T08:18:57.034Z,2.83
2023-05-19T08:21:23.432Z,2.75
2023-05-19T08:23:49.817Z,2.35
2023-05-19T08:26:16.166Z,3.13
2023-05-19T08:28:42.519Z,2.38
2023-05-19T08:31:08.927Z,3.33
2023-05-19T08:33:35.429Z,2.25
2023-05-19T08:36:01.804Z,2.72
2023-05-19T08:38:28.235Z,2.50
2023-05-19T08:40:54.712Z,2.95
2023-05-19T08:43:21.502Z,2.10
2023-05-19T08:45:47.876Z,2.47
2023-05-19T08:48:17.217Z,2.10
2023-05-19T08:50:51.704Z,1.95
2023-05-19T08:53:32.358Z,2.20
2023-05-19T08:56:16.571Z,2.35
2023-05-19T08:58:44.591Z,2.20
2023-05-19T09:01:14.507Z,2.35
2023-05-19T09:03:42.569Z,2.05
2023-05-19T09:06:10.528Z,2.17
2023-05-19T09:08:36.960Z,2.05
2023-05-19T09:11:03.352Z,2.30
2023-05-19T09:13:30.096Z,2.30
2023-05-19T09:15:57.670Z,2.05
2023-05-19T09:18:25.229Z,2.00
2023-05-19T09:20:55.879Z,2.38
2023-05-19T09:23:23.217Z,1.70
2023-05-19T09:25:53.156Z,2.20
2023-05-19T09:28:33.417Z,2.10
2023-05-19T09:31:01.048Z,1.92
2023-05-19T09:33:28.277Z,2.58
2023-05-19T09:35:55.742Z,2.03
2023-05-19T09:38:24.221Z,1.88
2023-05-19T09:40:50.709Z,2.08
2023-05-19T09:43:17.070Z,1.90
2023-05-19T09:45:44.191Z,1.55
2023-05-19T09:48:10.544Z,2.30
2023-05-19T09:50:37.150Z,2.40
2023-05-19T09:53:03.827Z,2.60
2023-05-19T09:55:30.566Z,2.60
2023-05-19T09:57:57.328Z,2.35
2023-05-19T10:00:23.681Z,2.47
2023-05-19T10:02:50.246Z,2.20
2023-05-19T10:05:19.074Z,2.00
2023-05-19T10:07:50.373Z,3.25
2023-05-19T10:10:17.597Z,2.47
2023-05-19T10:12:44.008Z,2.95
2023-05-19T10:15:11.892Z,2.35
2023-05-19T10:17:42.771Z,2.33
2023-05-19T10:20:11.086Z,2.70
2023-05-19T10:22:38.263Z,2.40
2023-05-19T10:25:05.608Z,2.20
2023-05-19T10:27:34.192Z,2.38
2023-05-19T10:30:18.663Z,2.30
2023-05-19T10:32:47.323Z,2.05
2023-05-19T10:35:28.706Z,1.95
2023-05-19T10:38:33.989Z,1.80
2023-05-19T10:41:28.439Z,2.45
2023-05-19T10:44:13.657Z,2.67
2023-05-19T10:49:09.774Z,2.20
2023-05-19T10:51:36.591Z,3.00
2023-05-19T10:54:07.940Z,2.75
2023-05-19T10:56:34.437Z,2.50
2023-05-19T10:59:02.290Z,2.30
2023-05-19T11:01:35.980Z,2.40
2023-05-19T11:04:07.469Z,2.10
2023-05-19T11:06:34.799Z,2.20
2023-05-19T11:09:13.857Z,1.80
2023-05-19T11:11:54.231Z,2.60
2023-05-19T11:14:28.097Z,2.28
2023-05-19T11:16:59.717Z,2.10
2023-05-19T11:19:31.145Z,1.67
2023-05-19T11:22:07.924Z,1.50
2023-05-19T11:24:44.492Z,1.50
2023-05-19T11:27:28.658Z,1.60
2023-05-19T11:29:56.666Z,1.75
2023-05-19T11:32:28.124Z,1.88
2023-05-19T11:34:55.921Z,1.67
2023-05-19T11:37:22.650Z,1.38
2023-05-19T11:39:49.611Z,1.85
2023-05-19T11:42:16.029Z,1.77
2023-05-19T11:44:43.741Z,1.92
2023-05-19T11:47:10.686Z,1.60
2023-05-19T11:49:37.059Z,1.73
2023-05-19T11:52:04.480Z,2.20
2023-05-19T11:54:32.953Z,1.67
2023-05-19T11:57:05.936Z,1.65
2023-05-19T11:59:35.477Z,1.90
2023-05-19T12:02:14.697Z,1.48
2023-05-19T12:04:41.231Z,1.27
2023-05-19T12:07:07.723Z,1.98
2023-05-19T12:09:34.226Z,2.53
2023-05-19T12:12:01.173Z,2.17
2023-05-19T12:14:30.040Z,1.90
2023-05-19T12:16:56.447Z,1.83
2023-05-19T12:19:24.627Z,2.25
2023-05-19T12:21:52.261Z,2.03
2023-05-19T12:24:20.052Z,1.75
2023-05-19T12:26:46.404Z,1.50
2023-05-19T12:29:13.496Z,2.00
2023-05-19T12:31:39.890Z,1.80
2023-05-19T12:34:06.344Z,1.60
2023-05-19T12:36:32.772Z,1.83
2023-05-19T12:38:59.303Z,1.60
2023-05-19T12:41:25.710Z,2.10
2023-05-19T12:43:52.086Z,1.80
2023-05-19T12:46:19.118Z,1.83
2023-05-19T12:48:46.885Z,2.00
2023-05-19T12:51:20.036Z,1.85
2023-05-19T12:53:46.958Z,2.17
2023-05-19T12:56:14.934Z,1.90
2023-05-19T12:58:42.503Z,2.20
2023-05-19T13:01:16.794Z,1.98
2023-05-19T13:03:43.654Z,1.98
2023-05-19T13:06:10.716Z,2.20
2023-05-19T13:08:38.188Z,2.20
2023-05-19T13:11:04.629Z,2.25
2023-05-19T13:13:31.070Z,2.28
2023-05-19T13:15:57.426Z,2.15
2023-05-19T13:18:23.834Z,2.10
2023-05-19T13:20:50.395Z,2.60
2023-05-19T13:23:16.993Z,2.22
2023-05-19T13:25:43.425Z,2.00
2023-05-19T13:28:10.280Z,2.13
2023-05-19T13:30:38.380Z,1.90
2023-05-19T13:33:04.877Z,2.10
2023-05-19T13:35:31.566Z,2.10
2023-05-19T13:37:58.068Z,1.77
2023-05-19T13:40:24.506Z,2.10
2023-05-19T13:42:50.886Z,2.20
2023-05-19T13:45:17.265Z,1.95
2023-05-19T13:47:43.660Z,1.80
2023-05-19T13:50:10.165Z,2.15
2023-05-19T13:52:36.530Z,2.03
2023-05-19T13:55:02.980Z,1.77
2023-05-19T13:57:29.369Z,2.03
2023-05-19T14:00:02.632Z,1.90
2023-05-19T14:02:30.308Z,2.33
2023-05-19T14:04:57.090Z,1.50
2023-05-19T14:07:23.466Z,2.20
2023-05-19T14:09:49.814Z,1.77
2023-05-19T14:12:16.394Z,2.55
2023-05-19T14:14:42.795Z,1.88
2023-05-19T14:17:09.152Z,4.57
2023-05-19T14:19:35.531Z,2.00
2023-05-19T14:22:01.928Z,1.70
2023-05-19T14:24:28.260Z,1.83
2023-05-19T14:26:54.616Z,2.22
2023-05-19T14:29:20.978Z,1.70
2023-05-19T14:31:47.491Z,1.85
2023-05-19T14:34:14.030Z,1.80
2023-05-19T14:36:40.403Z,2.47
2023-05-19T14:39:06.766Z,1.75
2023-05-19T14:41:33.114Z,1.50
2023-05-19T14:43:59.486Z,1.70
2023-05-19T14:46:25.883Z,1.60
2023-05-19T14:48:52.258Z,1.20
2023-05-19T14:51:18.607Z,1.50
2023-05-19T14:53:44.993Z,1.52
2023-05-19T14:56:11.331Z,2.13
2023-05-19T14:58:37.688Z,1.63
2023-05-19T15:01:04.163Z,2.03
2023-05-19T15:03:30.561Z,1.38
2023-05-19T15:05:56.958Z,1.88
2023-05-19T15:08:23.434Z,2.03
2023-05-19T15:10:50.054Z,2.03
2023-05-19T15:13:16.439Z,1.60
2023-05-19T15:15:42.811Z,1.90
2023-05-19T15:18:09.235Z,1.67
2023-05-19T15:20:35.790Z,1.58
2023-05-19T15:23:02.247Z,1.67
2023-05-19T15:25:28.623Z,1.85
2023-05-19T15:27:54.974Z,1.48
2023-05-19T15:30:21.347Z,2.42
2023-05-19T15:32:47.746Z,1.73
2023-05-19T15:35:15.227Z,1.48
2023-05-19T15:37:41.602Z,1.70
2023-05-19T15:40:08.556Z,1.60
2023-05-19T15:42:34.909Z,1.23
2023-05-19T15:45:01.285Z,1.75
2023-05-19T15:47:27.690Z,1.70
2023-05-19T15:49:54.077Z,1.80
2023-05-19T15:52:20.451Z,1.90
2023-05-19T15:54:46.859Z,1.50
2023-05-19T15:57:13.198Z,1.70
2023-05-19T15:59:39.538Z,1.90
2023-05-19T16:02:06.027Z,1.65
2023-05-19T16:04:32.443Z,1.80
2023-05-19T16:06:58.791Z,1.60
2023-05-19T16:09:25.135Z,1.80
2023-05-19T16:11:51.525Z,1.80
2023-05-19T16:14:17.881Z,1.88
2023-05-19T16:16:44.287Z,1.60
2023-05-19T16:19:10.721Z,1.55
2023-05-19T16:21:37.127Z,1.67
2023-05-19T16:24:03.659Z,1.58
2023-05-19T16:26:30.013Z,1.52
2023-05-19T16:28:56.400Z,1.85
2023-05-19T16:31:22.777Z,1.60
2023-05-19T16:33:49.152Z,1.73
2023-05-19T16:36:15.524Z,1.70
2023-05-19T16:38:41.882Z,1.73
2023-05-19T16:41:11.578Z,1.50
2023-05-19T16:43:38.062Z,1.40
2023-05-19T16:46:04.508Z,2.10
2023-05-19T16:48:30.959Z,1.60
2023-05-19T16:50:57.308Z,1.83
2023-05-19T16:53:23.751Z,1.48
2023-05-19T16:55:50.265Z,2.08
2023-05-19T16:58:16.634Z,1.40
2023-05-19T17:00:42.976Z,2.03
2023-05-19T17:03:09.504Z,1.70
2023-05-19T17:05:35.962Z,1.55
2023-05-19T17:08:02.316Z,1.50
2023-05-19T17:10:28.674Z,2.00
2023-05-19T17:12:55.025Z,1.45
2023-05-19T17:15:21.390Z,1.90
2023-05-19T17:17:47.754Z,1.63
2023-05-19T17:20:14.112Z,1.50
2023-05-19T17:22:40.478Z,1.40
2023-05-19T17:25:07.221Z,1.48
2023-05-19T17:27:33.580Z,2.33
2023-05-19T17:29:59.926Z,1.60
2023-05-19T17:32:26.348Z,1.75
2023-05-19T17:34:52.819Z,2.47
2023-05-19T17:37:19.346Z,1.88
2023-05-19T17:39:45.719Z,2.08
2023-05-19T17:42:12.084Z,1.50
2023-05-19T17:44:38.458Z,1.52
2023-05-19T17:47:04.884Z,1.80
2023-05-19T17:49:31.229Z,1.50
2023-05-19T17:51:57.836Z,1.88
2023-05-19T17:54:24.457Z,1.83
2023-05-19T17:56:50.968Z,1.73
2023-05-19T17:59:17.557Z,1.80
2023-05-19T18:01:44.253Z,1.80
2023-05-19T18:04:11.782Z,1.70
2023-05-19T18:06:40.760Z,1.50
2023-05-19T18:09:07.692Z,1.70
2023-05-19T18:11:34.224Z,1.77
2023-05-19T18:14:00.614Z,2.22
2023-05-19T18:16:27.114Z,1.50
2023-05-19T18:18:53.553Z,1.70
2023-05-19T18:21:19.953Z,1.80
2023-05-19T18:23:46.837Z,1.70
2023-05-19T18:26:13.372Z,2.42
2023-05-19T18:28:40.550Z,1.60
2023-05-19T18:31:07.689Z,1.77
2023-05-19T18:33:34.672Z,1.55
2023-05-19T18:36:01.048Z,1.70
2023-05-19T18:38:27.459Z,1.60
2023-05-19T18:40:53.797Z,1.20
2023-05-19T18:43:20.226Z,2.15
2023-05-19T18:45:47.021Z,1.80
2023-05-19T18:48:13.442Z,1.88
2023-05-19T18:50:39.863Z,1.42
2023-05-19T18:53:06.233Z,1.67
2023-05-19T18:55:32.604Z,1.65
2023-05-19T18:57:59.100Z,1.63
2023-05-19T19:00:25.454Z,1.52
2023-05-19T19:02:51.838Z,1.52
2023-05-19T19:05:18.310Z,1.98
2023-05-19T19:07:44.779Z,2.25
2023-05-19T19:10:11.562Z,1.90
2023-05-19T19:12:38.066Z,1.90
2023-05-19T19:15:04.868Z,1.92
2023-05-19T19:17:31.280Z,2.55
2023-05-19T19:19:57.832Z,1.80
2023-05-19T19:22:24.275Z,1.80
2023-05-19T19:24:50.621Z,1.95
2023-05-19T19:27:17.038Z,2.00
2023-05-19T19:29:46.664Z,2.20
2023-05-19T19:32:13.030Z,1.95
2023-05-19T19:34:39.376Z,1.67
2023-05-19T19:37:05.741Z,1.70
2023-05-19T19:39:32.086Z,1.80
2023-05-19T19:41:58.563Z,2.00
2023-05-19T19:44:25.098Z,2.10
2023-05-19T19:46:51.564Z,2.33
2023-05-19T19:49:17.990Z,2.25
2023-05-19T19:51:44.405Z,1.67
2023-05-19T19:54:10.777Z,1.90
2023-05-19T19:56:37.132Z,1.70
2023-05-19T19:59:03.479Z,2.50
2023-05-19T20:01:29.845Z,2.67
2023-05-19T20:03:56.917Z,2.40
2023-05-19T20:06:23.470Z,2.42
2023-05-19T20:08:49.964Z,1.90
2023-05-19T20:11:16.442Z,2.17
2023-05-19T20:13:42.776Z,2.00
2023-05-19T20:16:09.195Z,2.20
2023-05-19T20:18:35.636Z,2.05
2023-05-19T20:21:01.999Z,2.28
2023-05-19T20:23:28.430Z,2.05
2023-05-19T20:26:10.949Z,2.50
2023-05-19T20:28:38.576Z,2.20
2023-05-19T20:31:05.810Z,2.03
2023-05-19T20:33:32.202Z,2.13
2023-05-19T20:35:58.617Z,2.10
2023-05-19T20:38:24.977Z,1.95
2023-05-19T20:40:51.418Z,2.22
2023-05-19T20:43:17.782Z,1.95
2023-05-19T20:45:44.793Z,2.42
2023-05-19T20:48:11.644Z,8.57
2023-05-19T20:50:39.303Z,3.25
2023-05-19T20:53:05.721Z,4.90
2023-05-19T20:55:32.237Z,5.03
2023-05-19T20:57:58.742Z,3.53
2023-05-19T21:00:25.131Z,5.47
2023-05-19T21:02:51.519Z,4.05
2023-05-19T21:05:17.988Z,3.28
2023-05-19T21:07:44.373Z,2.65
2023-05-19T21:10:11.267Z,2.00
2023-05-19T21:12:37.640Z,2.90
2023-05-19T21:15:04.284Z,2.53
2023-05-19T21:17:30.688Z,3.03
2023-05-19T21:19:57.153Z,3.08
2023-05-19T21:22:27.332Z,2.60
2023-05-19T21:24:54.628Z,2.75
2023-05-19T21:27:21.678Z,2.40
2023-05-19T21:29:51.586Z,2.30
2023-05-19T21:32:17.972Z,2.78
2023-05-19T21:34:44.336Z,2.20
2023-05-19T21:37:10.833Z,2.50
2023-05-19T21:39:37.211Z,2.92
2023-05-19T21:42:03.787Z,2.42
2023-05-19T21:44:30.141Z,3.55
2023-05-19T21:46:56.585Z,2.45
2023-05-19T21:49:23.046Z,2.50
2023-05-19T21:51:49.397Z,2.40
2023-05-19T21:54:15.745Z,2.53
2023-05-19T21:56:42.089Z,2.10
2023-05-19T21:59:08.470Z,2.47
2023-05-19T22:01:34.857Z,2.30
2023-05-19T22:04:01.363Z,1.95
2023-05-19T22:06:27.803Z,2.45
2023-05-19T22:08:54.147Z,2.17
2023-05-19T22:11:20.521Z,2.13
2023-05-19T22:13:46.920Z,2.20
2023-05-19T22:16:13.287Z,2.38
2023-05-19T22:18:39.719Z,1.95
2023-05-19T22:21:06.141Z,2.50
2023-05-19T22:23:32.508Z,2.10
2023-05-19T22:25:58.852Z,2.05
2023-05-19T22:28:25.205Z,2.22
2023-05-19T22:30:51.586Z,2.50
2023-05-19T22:33:17.944Z,2.20
2023-05-19T22:35:44.288Z,2.00
2023-05-19T22:38:10.856Z,2.22
2023-05-19T22:40:37.568Z,2.50
2023-05-19T22:43:04.206Z,2.50
2023-05-19T22:45:31.222Z,2.33
2023-05-19T22:47:57.732Z,2.47
2023-05-19T22:50:24.085Z,2.70
2023-05-19T22:52:50.422Z,2.53
2023-05-19T22:55:16.794Z,2.17
2023-05-19T22:57:43.147Z,2.33
2023-05-19T23:00:10.145Z,2.42
2023-05-19T23:02:36.549Z,1.83
2023-05-19T23:05:03.098Z,2.13
2023-05-19T23:07:29.435Z,2.10
2023-05-19T23:09:55.787Z,2.05
2023-05-19T23:12:22.137Z,2.10
2023-05-19T23:14:48.485Z,2.10
2023-05-19T23:17:14.898Z,2.22
2023-05-19T23:19:41.303Z,2.10
2023-05-19T23:22:07.681Z,2.05
2023-05-19T23:24:34.024Z,2.15
2023-05-19T23:27:00.385Z,2.22
2023-05-19T23:29:26.951Z,2.13
2023-05-19T23:31:53.357Z,2.13
2023-05-19T23:34:19.842Z,2.00
2023-05-19T23:36:46.198Z,2.67
2023-05-19T23:39:12.588Z,2.05
2023-05-19T23:41:38.972Z,2.17
2023-05-19T23:44:05.401Z,2.20
2023-05-19T23:46:31.948Z,2.22
2023-05-19T23:48:58.400Z,1.90
2023-05-19T23:51:24.765Z,2.13
2023-05-19T23:53:51.097Z,2.10
2023-05-19T23:56:17.444Z,1.90
2023-05-19T23:58:43.797Z,2.15
